Monroe, Washington
Current Conditions -  °F | °C
As of 10:53 PM on Thursday 18 Dec 2014 (Local Time) from KPAE Reporting Station
Light Rain Light Rain  
Wind Chill: 40°   Ceiling: 3900
Heat Index: 46°   Visibility: 7mi
Dew Point: 43°   Wind: 14mph
Humidity: 89%   Direction: 150°SSE
Pressure: 29.75"   Gusts: 20mph
Location:  47.86°N, 121.97°W
Report Text: KPAE 190653Z AUTO 15012G17KT 7SM -RA FEW026 SCT032 OVC039 08/06 A2975 RMK AO2 SLP077 P0009 T00780061 TSNO
Loading
Personal Weather Stations






























Interactive Weather Map New forecast layout! Learn more

10-Day Weather Forecast

Advertisements
Track Severe Weather on mobile